Terminal Aerodrome Forecast
Issued by NWS

Home | Current Version | Previous Version | Graphics & Text | Print | Product List | Glossary On
Versions: 1 2 3 4 5 6 7 8 9 10 11 12 13
000
FTUS43 KMPX 180520
TAFAXN
TAF
KAXN 180520Z 1806/1906 04007KT P6SM FEW250
     FM181500 10010KT P6SM SCT150
     FM181900 11012G20KT P6SM BKN120
     FM190000 11011KT P6SM OVC080
     FM190200 11012KT 6SM -RA OVC040
     FM190400 11015KT 4SM RA BR SCT008 OVC017=

USA.gov is the U.S. government's official web portal to all federal, state and local government web resources and services.